Time;durP1;ratioP1;P1;durP2;ratioP2;P2;SDS_P1;SDS_P2;PMS_P1;PMS_P2;Temp;Humidity;BMP_temperature;BMP_pressure;BME280_temperature;BME280_humidity;BME280_pressure;Samples;Min_cycle;Max_cycle;Signal;HPM_P1;HPM_P2
2022/11/10 02:33:54;;;;;;;21.13;13.00;;;;;;;5.11;100.00;100420.44;1858951;74;22501;-51
2022/11/10 02:36:40;;;;;;;18.37;11.47;;;;;;;5.02;100.00;100434.80;1840382;75;21469;-51
2022/11/10 02:39:24;;;;;;;17.27;12.40;;;;;;;5.00;100.00;100439.76;1843139;75;22282;-49
2022/11/10 02:42:09;;;;;;;;;;;;;;;4.97;100.00;100438.45;1841691;75;21024;-50
2022/11/10 02:44:54;;;;;;;17.80;11.83;;;;;;;4.97;100.00;100436.67;1845298;75;20220;-49
2022/11/10 02:47:39;;;;;;;;;;;;;;;4.97;100.00;100442.45;1844481;75;21005;-49
2022/11/10 02:50:24;;;;;;;16.00;9.95;;;;;;;4.98;100.00;100442.89;1847734;75;20167;-49
2022/11/10 02:53:09;;;;;;;;;;;;;;;4.99;100.00;100444.20;1845020;75;21817;-50
2022/11/10 02:55:54;;;;;;;18.02;13.05;;;;;;;5.04;100.00;100438.79;1842116;75;20538;-49
2022/11/10 02:58:41;;;;;;;16.57;11.80;;;;;;;5.05;100.00;100437.44;1841651;75;21087;-49
2022/11/10 03:01:26;;;;;;;18.40;12.28;;;;;;;5.11;100.00;100444.00;1841610;75;21547;-50
2022/11/10 03:04:11;;;;;;;17.52;11.80;;;;;;;5.15;100.00;100445.73;1838844;75;21049;-49
2022/11/10 03:06:56;;;;;;;;;;;;;;;5.22;100.00;100436.73;1846031;75;21898;-50
2022/11/10 03:09:42;;;;;;;17.70;11.90;;;;;;;5.26;100.00;100441.58;1840845;75;20477;-50
2022/11/10 03:12:27;;;;;;;20.75;12.90;;;;;;;5.32;100.00;100436.13;1776736;79;21094;-50
2022/11/10 03:15:13;;;;;;;17.20;11.57;;;;;;;5.39;100.00;100427.11;1771435;78;22465;-50
2022/11/10 03:18:02;;;;;;;15.90;11.50;;;;;;;5.44;100.00;100430.61;1771056;78;21049;-50
2022/11/10 03:20:48;;;;;;;15.47;10.53;;;;;;;5.50;100.00;100426.94;1800279;77;21832;-50
2022/11/10 03:23:35;;;;;;;15.70;11.03;;;;;;;5.54;100.00;100425.97;1798096;77;21040;-50
2022/11/10 03:26:21;;;;;;;13.57;10.57;;;;;;;5.59;100.00;100419.66;1792826;77;21127;-50
2022/11/10 03:29:06;;;;;;;14.98;11.08;;;;;;;5.66;100.00;100423.09;1799997;77;21116;-50
2022/11/10 03:31:51;;;;;;;15.88;12.68;;;;;;;5.69;100.00;100421.72;1773429;79;21098;-50
2022/11/10 03:34:37;;;;;;;17.92;12.05;;;;;;;5.73;100.00;100416.73;1761311;79;21934;-50
2022/11/10 03:37:22;;;;;;;19.87;13.15;;;;;;;5.77;100.00;100421.13;1768347;79;21499;-51
2022/11/10 03:40:08;;;;;;;14.97;11.97;;;;;;;5.81;100.00;100415.25;1750701;80;21111;-50
2022/11/10 03:42:54;;;;;;;18.00;12.13;;;;;;;5.83;100.00;100415.66;1750524;80;21045;-51
2022/11/10 03:45:41;;;;;;;18.73;12.47;;;;;;;5.84;100.00;100408.53;1752449;80;21118;-50
2022/11/10 03:48:26;;;;;;;17.13;12.30;;;;;;;5.85;100.00;100411.17;1730801;80;21797;-50
2022/11/10 03:51:11;;;;;;;15.83;11.93;;;;;;;5.86;100.00;100408.05;1749260;80;21061;-51
2022/11/10 03:53:56;;;;;;;17.82;12.43;;;;;;;5.88;100.00;100409.80;1753227;80;21022;-50
2022/11/10 03:56:41;;;;;;;;;;;;;;;5.91;100.00;100412.88;1754804;80;21939;-51
2022/11/10 03:59:25;;;;;;;15.48;11.38;;;;;;;5.92;100.00;100404.84;1754071;80;20825;-50
2022/11/10 04:02:10;;;;;;;;;;;;;;;5.93;100.00;100405.27;1779378;78;22517;-50
2022/11/10 04:17:49;;;;;;;14.63;11.03;;;;;;;6.02;100.00;100401.53;1737207;80;21058;-50
2022/11/10 04:20:35;;;;;;;18.93;10.87;;;;;;;6.05;100.00;100405.01;1735970;80;21488;-51
2022/11/10 04:23:25;;;;;;;14.75;12.15;;;;;;;6.07;100.00;100407.20;1764941;79;21136;-50
2022/11/10 04:26:27;;;;;;;18.05;11.93;;;;;;;6.11;100.00;100404.48;1770661;79;21698;-49
2022/11/10 04:29:14;;;;;;;15.98;11.50;;;;;;;6.11;100.00;100409.38;1766127;80;21096;-51
2022/11/10 04:31:59;;;;;;;15.10;11.45;;;;;;;6.15;100.00;100408.84;1765144;80;21055;-51
2022/11/10 04:34:44;;;;;;;15.53;11.48;;;;;;;6.17;100.00;100406.57;1740045;80;21513;-50
2022/11/10 04:37:29;;;;;;;14.38;11.15;;;;;;;6.19;100.00;100406.09;1745853;80;21623;-51
2022/11/10 04:40:14;;;;;;;12.73;10.90;;;;;;;6.22;100.00;100408.68;1740450;81;21525;-50
2022/11/10 04:42:59;;;;;;;;;;;;;;;6.24;100.00;100412.67;1770172;79;21615;-50
2022/11/10 04:45:44;;;;;;;13.88;10.15;;;;;;;6.25;100.00;100415.77;1732998;81;20336;-50
2022/11/10 04:48:29;;;;;;;15.05;10.05;;;;;;;6.27;100.00;100415.30;1741077;81;21155;-50
2022/11/10 04:51:15;;;;;;;19.57;11.10;;;;;;;6.30;100.00;100410.74;1741428;81;21117;-51
2022/11/10 04:54:00;;;;;;;15.05;9.85;;;;;;;6.31;100.00;100411.17;1743252;81;21853;-50
2022/11/10 04:56:45;;;;;;;11.63;9.65;;;;;;;6.32;100.00;100413.39;1742850;81;21097;-50
2022/11/10 04:59:32;;;;;;;18.62;12.78;;;;;;;6.32;100.00;100413.39;1741833;81;21077;-51
2022/11/10 05:02:17;;;;;;;;;;;;;;;6.33;100.00;100415.16;1743249;81;21088;-51
2022/11/10 05:05:03;;;;;;;39.03;27.82;;;;;;;6.33;100.00;100418.71;1731740;81;20339;-51
2022/11/10 05:07:48;;;;;;;21.48;13.20;;;;;;;6.33;100.00;100423.18;1713359;81;21954;-50
2022/11/10 05:10:35;;;;;;;13.38;11.33;;;;;;;6.32;100.00;100420.95;1715072;81;21518;-51
2022/11/10 05:13:20;;;;;;;;;;;;;;;6.30;100.00;100425.45;1776251;79;21071;-51
2022/11/10 05:16:06;;;;;;;15.60;10.15;;;;;;;6.30;100.00;100429.91;1772449;79;20200;-50
2022/11/10 05:18:54;;;;;;;15.93;9.63;;;;;;;6.30;100.00;100440.61;1774250;79;21172;-50
2022/11/10 05:21:38;;;;;;;11.78;9.15;;;;;;;6.30;100.00;100437.94;1767734;79;21822;-50
2022/11/10 05:24:25;;;;;;;12.70;10.08;;;;;;;6.30;100.00;100445.50;1767311;79;21082;-50
2022/11/10 05:27:10;;;;;;;;;;;;;;;6.32;100.00;100452.16;1772496;79;21064;-49
2022/11/10 05:29:55;;;;;;;12.45;10.35;;;;;;;6.33;100.00;100449.46;1775948;79;20173;-50
2022/11/10 05:32:39;;;;;;;;;;;;;;;6.32;100.00;100453.50;1774255;79;21586;-50
2022/11/10 05:35:24;;;;;;;19.63;12.47;;;;;;;6.35;100.00;100458.80;1768178;79;21832;-50
2022/11/10 05:38:10;;;;;;;19.27;11.18;;;;;;;6.36;100.00;100452.54;1773148;79;21047;-50
2022/11/10 05:40:55;;;;;;;14.10;10.25;;;;;;;6.37;100.00;100456.53;1766673;79;21431;-51
2022/11/10 05:43:41;;;;;;;13.80;10.75;;;;;;;6.37;100.00;100454.30;1770425;79;21070;-50
2022/11/10 05:46:26;;;;;;;14.05;9.28;;;;;;;6.36;100.00;100463.23;1771801;79;21120;-51
2022/11/10 05:49:13;;;;;;;14.10;9.23;;;;;;;6.38;100.00;100466.28;1767348;79;23245;-50
2022/11/10 05:51:58;;;;;;;;;;;;;;;6.43;100.00;100466.20;1774032;79;21476;-51
2022/11/10 05:54:43;;;;;;;;;;;;;;;6.45;100.00;100465.73;1774153;79;21234;-50
2022/11/10 05:57:29;;;;;;;12.35;9.35;;;;;;;6.47;100.00;100475.91;1771038;79;21327;-51
2022/11/10 06:00:20;;;;;;;19.45;11.38;;;;;;;6.50;100.00;100473.19;1766455;79;21019;-51
2022/11/10 06:03:07;;;;;;;14.13;9.95;;;;;;;6.52;100.00;100468.70;1771135;79;21877;-50
2022/11/10 06:05:52;;;;;;;14.40;10.50;;;;;;;6.55;100.00;100479.31;1766445;77;21460;-51
2022/11/10 06:08:37;;;;;;;13.08;10.50;;;;;;;6.60;100.00;100477.90;1798988;79;21614;-51
2022/11/10 06:11:22;;;;;;;15.88;10.30;;;;;;;6.62;100.00;100474.29;1792795;78;21133;-50
2022/11/10 06:14:59;;;;;;;15.87;11.40;;;;;;;6.65;100.00;100472.87;1773936;78;22631;-49
2022/11/10 06:17:44;;;;;;;15.25;12.75;;;;;;;6.67;100.00;100480.87;1736205;80;21089;-49
2022/11/10 06:20:29;;;;;;;15.13;9.93;;;;;;;6.72;100.00;100483.02;1740141;80;21610;-49
2022/11/10 06:23:14;;;;;;;16.23;10.23;;;;;;;6.76;100.00;100484.23;1747495;80;21504;-49
2022/11/10 06:25:59;;;;;;;13.05;10.00;;;;;;;6.81;100.00;100490.81;1739570;80;20987;-49
2022/11/10 06:28:45;;;;;;;18.92;10.95;;;;;;;6.82;100.00;100498.81;1744995;80;20981;-49
2022/11/10 06:31:30;;;;;;;15.48;11.03;;;;;;;6.87;100.00;100503.20;1740789;80;21484;-48
2022/11/10 06:34:15;;;;;;;17.98;11.60;;;;;;;6.91;100.00;100503.55;1744007;80;26209;-49
2022/11/10 06:36:59;;;;;;;15.88;11.88;;;;;;;6.94;100.00;100504.38;1738266;80;21030;-49
2022/11/10 06:39:45;;;;;;;18.98;10.75;;;;;;;7.00;100.00;100508.70;1743380;80;20991;-49
2022/11/10 06:42:29;;;;;;;15.68;11.00;;;;;;;7.01;100.00;100506.45;1736441;80;21144;-49
2022/11/10 06:45:15;;;;;;;;;;;;;;;7.03;100.00;100504.17;1719181;80;21109;-49
2022/11/10 06:48:05;;;;;;;9.88;8.85;;;;;;;7.03;100.00;100497.48;1740343;80;21222;-50
2022/11/10 06:50:50;;;;;;;14.70;9.73;;;;;;;7.04;100.00;100498.37;1739180;80;21137;-50
2022/11/10 06:53:35;;;;;;;;;;;;;;;7.03;100.00;100497.48;1741977;80;21264;-50
2022/11/10 06:56:20;;;;;;;11.63;9.23;;;;;;;7.04;100.00;100498.37;1743106;80;20883;-49
2022/11/10 06:59:05;;;;;;;;;;;;;;;7.04;100.00;100507.28;1744079;80;21080;-50
2022/11/10 07:01:50;;;;;;;26.95;20.82;;;;;;;7.04;100.00;100494.35;1740046;80;21961;-50
2022/11/10 07:04:35;;;;;;;28.65;23.18;;;;;;;7.05;100.00;100498.80;1742109;80;21086;-50
2022/11/10 07:07:21;;;;;;;18.25;14.33;;;;;;;7.06;100.00;100493.87;1741181;80;21073;-51
2022/11/10 07:10:08;;;;;;;12.30;10.35;;;;;;;7.08;100.00;100494.69;1734789;80;21445;-50
2022/11/10 07:13:01;;;;;;;14.55;9.45;;;;;;;7.11;100.00;100492.84;1715034;81;21049;-50
2022/11/10 07:15:46;;;;;;;11.63;9.83;;;;;;;7.13;100.00;100499.05;1718041;81;21859;-50
2022/11/10 07:18:31;;;;;;;11.65;8.98;;;;;;;7.19;100.00;100501.58;1709191;81;21657;-50
2022/11/10 07:21:17;;;;;;;14.53;9.93;;;;;;;7.26;100.00;100497.41;1713137;81;21076;-50
2022/11/10 07:24:02;;;;;;;;;;;;;;;7.32;100.00;100503.50;1718564;81;21124;-50
2022/11/10 07:26:47;;;;;;;14.83;10.32;;;;;;;7.39;100.00;100500.25;1716165;81;20264;-49
2022/11/10 07:29:32;;;;;;;13.20;11.12;;;;;;;7.45;100.00;100504.11;1717702;81;21982;-49
2022/11/10 07:32:16;;;;;;;;;;;;;;;7.49;100.00;100509.80;1714578;81;21936;-49
2022/11/10 07:35:02;;;;;;;16.97;12.47;;;;;;;7.53;100.00;100506.15;1713953;81;20997;-50
2022/11/10 07:37:48;;;;;;;17.40;12.60;;;;;;;7.59;100.00;100508.67;1715242;81;21272;-50
2022/11/10 07:40:33;;;;;;;14.33;12.03;;;;;;;7.63;100.00;100498.31;1715077;81;21112;-51
2022/11/10 07:43:19;;;;;;;11.35;10.20;;;;;;;7.69;100.00;100503.97;1718099;81;21803;-51
2022/11/10 07:46:03;;;;;;;14.38;11.63;;;;;;;7.74;100.00;100508.78;1711244;81;21732;-50
2022/11/10 07:48:49;;;;;;;12.63;10.80;;;;;;;7.78;100.00;100516.69;1717842;81;21025;-50
2022/11/10 07:51:34;;;;;;;14.80;10.85;;;;;;;7.83;100.00;100514.77;1714778;81;21081;-50
2022/11/10 07:54:19;;;;;;;11.40;8.95;;;;;;;7.88;100.00;100513.33;1716943;81;21102;-51
2022/11/10 07:57:05;;;;;;;10.65;9.55;;;;;;;7.92;100.00;100517.22;1716359;81;21945;-50
2022/11/10 07:59:49;;;;;;;;;;;;;;;7.98;100.00;100517.09;1719207;81;21112;-51
2022/11/10 08:02:35;;;;;;;9.78;8.78;;;;;;;8.03;100.00;100515.61;1717302;81;20229;-51
2022/11/10 08:05:21;;;;;;;10.38;8.48;;;;;;;8.07;100.00;100511.95;1714170;81;21767;-51
2022/11/10 08:08:06;;;;;;;9.78;7.83;;;;;;;8.14;100.00;100516.68;1713372;81;21098;-49
2022/11/10 08:10:56;;;;;;;11.80;9.43;;;;;;;8.17;100.00;100519.26;1715263;81;21830;-51
2022/11/10 08:13:42;;;;;;;12.47;8.68;;;;;;;8.19;100.00;100516.97;1715193;81;21104;-51
2022/11/10 08:16:27;;;;;;;14.18;10.13;;;;;;;8.23;100.00;100515.09;1715304;81;21590;-51
2022/11/10 08:19:13;;;;;;;10.32;8.80;;;;;;;8.26;100.00;100519.91;1713216;81;21031;-52
2022/11/10 08:21:58;;;;;;;9.80;8.25;;;;;;;8.30;100.00;100521.59;1714444;81;21073;-51
2022/11/10 08:24:43;;;;;;;9.25;8.15;;;;;;;8.35;100.00;100529.08;1714665;81;23327;-51
2022/11/10 08:27:29;;;;;;;11.22;9.38;;;;;;;8.37;100.00;100529.05;1677783;83;21081;-50
2022/11/10 08:30:15;;;;;;;9.93;7.50;;;;;;;8.40;100.00;100532.11;1679497;83;21068;-49
2022/11/10 08:33:01;;;;;;;11.60;9.15;;;;;;;8.42;100.00;100526.26;1658129;84;22227;-51
2022/11/10 08:35:49;;;;;;;11.53;9.18;;;;;;;8.44;100.00;100531.09;1680939;83;21048;-50
2022/11/10 08:38:34;;;;;;;12.60;9.05;;;;;;;8.44;100.00;100526.61;1677281;83;22022;-50
2022/11/10 08:41:19;;;;;;;24.15;17.65;;;;;;;8.47;100.00;100527.00;1681140;83;21629;-50
2022/11/10 08:44:05;;;;;;;;;;;;;;;8.48;100.00;100530.98;1683651;83;21076;-49
2022/11/10 08:46:50;;;;;;;12.35;9.55;;;;;;;8.52;100.00;100531.77;1659120;85;20590;-49
2022/11/10 08:49:36;;;;;;;14.35;10.05;;;;;;;8.55;100.00;100531.69;1651164;84;21077;-50
2022/11/10 08:52:21;;;;;;;12.25;10.08;;;;;;;8.55;100.00;100531.23;1659145;84;23475;-50
2022/11/10 08:55:07;;;;;;;12.47;10.48;;;;;;;8.54;100.00;100531.27;1660231;84;21101;-50
2022/11/10 08:57:52;;;;;;;15.88;10.40;;;;;;;8.56;100.00;100529.43;1663353;84;21137;-50
2022/11/10 09:00:38;;;;;;;14.53;10.30;;;;;;;8.57;100.00;100529.39;1685161;83;21700;-50
2022/11/10 09:03:24;;;;;;;12.98;10.05;;;;;;;8.58;100.00;100527.59;1649867;85;21109;-50
2022/11/10 09:06:09;;;;;;;14.20;10.60;;;;;;;8.58;100.00;100524.91;1671882;84;21966;-50
2022/11/10 09:08:54;;;;;;;13.75;10.55;;;;;;;8.60;100.00;100525.72;1673545;83;21089;-49
2022/11/10 09:11:39;;;;;;;17.45;10.53;;;;;;;8.60;100.00;100523.03;1675214;83;21029;-50
2022/11/10 09:14:26;;;;;;;11.30;10.13;;;;;;;8.61;100.00;100534.20;1682105;83;21057;-50
2022/11/10 09:17:12;;;;;;;14.73;10.70;;;;;;;8.60;100.00;100525.27;1713159;82;21062;-49
2022/11/10 09:19:58;;;;;;;15.65;11.12;;;;;;;8.61;100.00;100523.45;1706466;82;21776;-50
2022/11/10 09:22:44;;;;;;;18.90;12.00;;;;;;;8.61;100.00;100517.63;1713076;82;21033;-50
2022/11/10 09:25:30;;;;;;;13.53;11.15;;;;;;;8.63;100.00;100526.98;1711430;82;21307;-49
2022/11/10 09:28:15;;;;;;;22.52;15.00;;;;;;;8.64;100.00;100526.06;1711361;82;21470;-51
2022/11/10 09:31:01;;;;;;;13.85;10.98;;;;;;;8.67;100.00;100534.05;1711295;82;21143;-51
2022/11/10 09:33:46;;;;;;;17.07;11.95;;;;;;;8.68;100.00;100524.58;1708232;82;21946;-50
2022/11/10 09:36:31;;;;;;;16.12;11.73;;;;;;;8.68;100.00;100529.95;1705724;82;21121;-49
2022/11/10 09:39:17;;;;;;;17.85;12.28;;;;;;;8.68;100.00;100537.12;1707108;82;21021;-50
2022/11/10 09:42:05;;;;;;;14.87;11.85;;;;;;;8.68;100.00;100531.30;1710069;82;21014;-51
2022/11/10 09:44:54;;;;;;;19.45;13.88;;;;;;;8.69;100.00;100536.20;1706646;82;21064;-50
2022/11/10 09:47:47;;;;;;;14.35;12.05;;;;;;;8.68;100.00;100533.09;1709326;82;21794;-50
2022/11/10 09:50:56;;;;;;;19.62;13.22;;;;;;;8.68;100.00;100530.41;1705115;82;21564;-50
2022/11/10 09:53:49;;;;;;;17.60;13.13;;;;;;;8.69;100.00;100525.46;1708369;82;21106;-50
2022/11/10 09:56:36;;;;;;;20.52;15.53;;;;;;;8.71;100.00;100528.53;1710232;82;21393;-48
2022/11/10 09:59:29;;;;;;;18.10;13.58;;;;;;;8.70;100.00;100524.08;1708312;82;21161;-48
2022/11/10 10:02:33;;;;;;;19.37;12.68;;;;;;;8.71;100.00;100522.28;1704327;82;21848;-49
2022/11/10 10:05:39;;;;;;;19.92;12.50;;;;;;;8.72;100.00;100522.25;1706839;82;21107;-49
2022/11/10 10:09:00;;;;;;;15.50;10.50;;;;;;;8.72;100.00;100507.48;1697836;82;21054;-48
2022/11/10 10:11:57;;;;;;;15.70;12.53;;;;;;;8.74;100.00;100514.16;1674213;83;22282;-50
2022/11/10 10:15:08;;;;;;;14.18;10.53;;;;;;;8.76;100.00;100514.12;1668649;83;21572;-49
2022/11/10 10:18:18;;;;;;;16.00;11.83;;;;;;;8.78;100.00;100512.24;1717137;81;21740;-50
2022/11/10 10:21:47;;;;;;;16.62;12.10;;;;;;;8.77;100.00;100523.91;1712230;81;21595;-49
2022/11/10 10:24:33;;;;;;;15.23;10.98;;;;;;;8.78;100.00;100520.30;1714913;81;21041;-49
2022/11/10 10:27:22;;;;;;;14.15;11.22;;;;;;;8.77;100.00;100518.08;1712020;81;21094;-49
2022/11/10 10:30:14;;;;;;;18.52;12.98;;;;;;;8.79;100.00;100522.06;1703949;81;21470;-49
2022/11/10 10:33:11;;;;;;;15.95;11.73;;;;;;;8.80;100.00;100522.48;1715010;81;21803;-48
2022/11/10 10:35:56;;;;;;;17.35;13.18;;;;;;;8.81;100.00;100523.78;1716149;81;21653;-49
2022/11/10 10:38:42;;;;;;;16.73;11.75;;;;;;;8.82;100.00;100523.33;1717729;81;21069;-49
2022/11/10 10:41:30;;;;;;;12.85;9.93;;;;;;;8.80;100.00;100525.17;1714112;81;21530;-50
2022/11/10 10:44:17;;;;;;;18.80;12.55;;;;;;;8.82;100.00;100524.67;1713308;81;21089;-48
2022/11/10 10:47:03;;;;;;;13.35;10.78;;;;;;;8.80;100.00;100524.70;1723967;81;22028;-49
2022/11/10 10:49:48;;;;;;;17.40;12.18;;;;;;;8.79;100.00;100517.58;1714663;81;21041;-48
2022/11/10 10:52:35;;;;;;;16.60;10.50;;;;;;;8.78;100.00;100522.98;1717642;81;21070;-49
2022/11/10 10:55:20;;;;;;;;;;;;;;;8.78;100.00;100527.89;1712281;81;21077;-49
2022/11/10 10:58:30;;;;;;;18.23;10.80;;;;;;;8.80;100.00;100526.05;1715202;81;20478;-49
2022/11/10 11:01:30;;;;;;;16.42;10.15;;;;;;;8.79;100.00;100524.75;1727290;81;21786;-49
2022/11/10 11:04:36;;;;;;;16.15;9.70;;;;;;;8.76;100.00;100529.77;1718967;81;21428;-50
2022/11/10 11:07:23;;;;;;;15.23;10.08;;;;;;;8.75;100.00;100536.52;1715379;81;21045;-48
2022/11/10 11:10:30;;;;;;;13.70;9.88;;;;;;;8.71;100.00;100541.95;1712584;81;21060;-50
2022/11/10 11:13:24;;;;;;;13.38;11.00;;;;;;;8.69;100.00;100539.77;1710673;81;21510;-50
2022/11/10 11:16:11;;;;;;;17.77;10.95;;;;;;;8.67;100.00;100539.41;1714942;81;21890;-51
2022/11/10 11:18:56;;;;;;;16.80;13.43;;;;;;;8.64;100.00;100543.05;1710513;81;21072;-51
2022/11/10 11:22:09;;;;;;;18.57;14.10;;;;;;;8.65;100.00;100542.59;1710448;81;21088;-51
2022/11/10 11:25:23;;;;;;;18.92;12.35;;;;;;;8.66;100.00;100541.67;1707203;81;21645;-50
2022/11/10 11:28:42;;;;;;;19.25;13.38;;;;;;;8.64;100.00;100535.00;1711819;81;21056;-50
2022/11/10 11:32:05;;;;;;;19.12;11.85;;;;;;;8.62;100.00;100532.81;1719234;81;21883;-50
2022/11/10 11:35:03;;;;;;;17.15;13.45;;;;;;;8.61;100.00;100538.22;1705925;81;21037;-50
2022/11/10 11:38:15;;;;;;;19.73;14.23;;;;;;;8.61;100.00;100542.25;1704461;81;21100;-50
2022/11/10 11:41:09;;;;;;;20.08;13.90;;;;;;;8.60;100.00;100544.50;1695216;81;21084;-50
2022/11/10 11:44:08;;;;;;;19.90;12.55;;;;;;;8.58;100.00;100542.35;1711238;81;21779;-50
2022/11/10 11:47:06;;;;;;;15.85;12.20;;;;;;;8.57;100.00;100538.78;1675354;83;21447;-50
2022/11/10 11:50:25;;;;;;;20.80;13.68;;;;;;;8.58;100.00;100537.87;1713136;81;21065;-50
2022/11/10 11:53:49;;;;;;;22.70;13.48;;;;;;;8.58;100.00;100539.67;1707859;81;21103;-50
2022/11/10 11:56:41;;;;;;;24.55;15.05;;;;;;;8.59;100.00;100543.62;1708759;81;21121;-49
2022/11/10 11:59:41;;;;;;;20.08;13.93;;;;;;;8.59;100.00;100540.09;1708329;82;22171;-50
2022/11/10 12:02:56;;;;;;;19.75;13.78;;;;;;;8.59;100.00;100538.25;1709993;81;21922;-50
2022/11/10 12:06:03;;;;;;;20.08;13.80;;;;;;;8.59;100.00;100538.75;1712043;81;21038;-50
2022/11/10 12:09:15;;;;;;;14.55;11.65;;;;;;;8.60;100.00;100529.74;1708877;81;21092;-49
2022/11/10 12:12:38;;;;;;;24.80;12.85;;;;;;;8.61;100.00;100528.37;1709135;81;21484;-51
2022/11/10 12:15:47;;;;;;;19.20;12.93;;;;;;;8.63;100.00;100526.98;1715659;81;21045;-50
2022/11/10 12:18:39;;;;;;;13.85;9.90;;;;;;;8.65;100.00;100529.17;1719463;81;21945;-50
2022/11/10 12:21:45;;;;;;;15.90;11.30;;;;;;;8.66;100.00;100537.65;1720798;81;20980;-50
2022/11/10 12:24:44;;;;;;;11.45;8.28;;;;;;;8.64;100.00;100535.00;1720429;81;21578;-50
2022/11/10 12:27:33;;;;;;;14.58;9.08;;;;;;;8.65;100.00;100531.86;1716568;81;21076;-49
2022/11/10 12:30:18;;;;;;;15.45;9.78;;;;;;;8.64;100.00;100526.95;1713673;81;21058;-50
2022/11/10 12:33:17;;;;;;;12.05;9.25;;;;;;;8.65;100.00;100525.15;1711986;81;21824;-50
2022/11/10 12:36:05;;;;;;;11.00;9.10;;;;;;;8.65;100.00;100526.49;1722612;81;21025;-50
2022/11/10 12:39:16;;;;;;;14.60;9.15;;;;;;;8.64;100.00;100524.73;1701490;81;20980;-50
2022/11/10 12:42:00;;;;;;;10.63;9.40;;;;;;;8.65;100.00;100531.86;1719521;81;21428;-50
2022/11/10 12:44:59;;;;;;;13.98;9.60;;;;;;;8.65;100.00;100537.23;1705214;81;21033;-50
2022/11/10 12:47:45;;;;;;;10.60;7.65;;;;;;;8.65;100.00;100530.06;1713350;81;21770;-50
2022/11/10 12:50:45;;;;;;;12.53;9.23;;;;;;;8.67;100.00;100525.53;1714326;81;21461;-50
2022/11/10 12:53:32;;;;;;;9.83;7.65;;;;;;;8.69;100.00;100527.69;1719878;81;21033;-50
2022/11/10 12:56:23;;;;;;;10.35;7.90;;;;;;;8.69;100.00;100533.52;1717714;81;21124;-49
2022/11/10 12:59:34;;;;;;;14.78;11.12;;;;;;;8.70;100.00;100539.31;1683284;83;21000;-50
2022/11/10 13:02:41;;;;;;;17.98;13.88;;;;;;;8.69;100.00;100537.55;1660584;84;21790;-50
2022/11/10 13:05:39;;;;;;;17.00;13.48;;;;;;;8.68;100.00;100538.46;1662306;84;21376;-50
2022/11/10 13:08:44;;;;;;;15.98;13.53;;;;;;;8.67;100.00;100547.01;1678081;83;21119;-50
2022/11/10 13:11:34;;;;;;;22.15;13.93;;;;;;;8.67;100.00;100545.66;1665490;84;21479;-50
2022/11/10 13:14:25;;;;;;;23.60;14.95;;;;;;;8.67;100.00;100538.95;1661902;84;21052;-50
2022/11/10 13:17:31;;;;;;;17.85;13.30;;;;;;;8.67;100.00;100542.09;1635706;85;23338;-50
2022/11/10 13:20:52;;;;;;;15.50;12.50;;;;;;;8.66;100.00;100542.55;1706884;82;21500;-50
2022/11/10 13:23:49;;;;;;;15.53;12.68;;;;;;;8.66;100.00;100539.88;1702590;82;21104;-51
2022/11/10 13:26:45;;;;;;;17.60;13.20;;;;;;;8.65;100.00;100547.96;1705563;82;21476;-50
2022/11/10 13:29:52;;;;;;;18.75;12.30;;;;;;;8.63;100.00;100559.20;1707587;82;21105;-50
2022/11/10 13:32:39;;;;;;;16.50;11.78;;;;;;;8.65;100.00;100564.06;1706902;82;21061;-51
2022/11/10 13:35:33;;;;;;;15.83;12.13;;;;;;;8.64;100.00;100564.98;1708778;82;21057;-51
2022/11/10 13:38:39;;;;;;;17.95;12.28;;;;;;;8.64;100.00;100563.64;1705289;82;21057;-51
2022/11/10 13:41:25;;;;;;;19.20;13.10;;;;;;;8.63;100.00;100565.91;1694438;82;21157;-51
2022/11/10 13:44:37;;;;;;;18.00;12.40;;;;;;;8.63;100.00;100567.25;1705793;82;21101;-51
2022/11/10 13:47:33;;;;;;;14.65;10.45;;;;;;;8.64;100.00;100559.62;1672655;83;22246;-50
2022/11/10 13:50:36;;;;;;;21.62;12.70;;;;;;;8.64;100.00;100551.11;1712634;82;21059;-51
2022/11/10 13:54:05;;;;;;;18.35;13.90;;;;;;;8.64;100.00;100548.42;1706998;82;21904;-50
2022/11/10 13:57:25;;;;;;;19.82;12.35;;;;;;;8.65;100.00;100560.04;1706273;82;21119;-50
2022/11/10 14:00:19;;;;;;;20.23;13.95;;;;;;;8.63;100.00;100555.17;1706162;82;21081;-50
2022/11/10 14:03:05;;;;;;;19.35;12.13;;;;;;;8.61;100.00;100551.64;1701702;82;21962;-49
2022/11/10 14:06:03;;;;;;;16.30;13.15;;;;;;;8.61;100.00;100554.32;1709900;82;20970;-49
2022/11/10 14:09:03;;;;;;;16.45;13.13;;;;;;;8.59;100.00;100564.24;1706347;82;21105;-50
2022/11/10 14:11:52;;;;;;;18.40;13.90;;;;;;;8.60;100.00;100561.95;1709963;82;21061;-50
2022/11/10 14:14:55;;;;;;;15.95;13.18;;;;;;;8.60;100.00;100561.48;1706719;82;21090;-50
2022/11/10 14:17:45;;;;;;;21.00;13.43;;;;;;;8.60;100.00;100552.09;1704899;82;21929;-50
2022/11/10 14:20:41;;;;;;;19.67;14.05;;;;;;;8.61;100.00;100551.64;1649151;84;21092;-50
2022/11/10 14:23:49;;;;;;;19.77;14.25;;;;;;;8.63;100.00;100551.14;1696705;82;21076;-50
2022/11/10 14:26:47;;;;;;;22.87;14.80;;;;;;;8.64;100.00;100548.42;1699974;82;21131;-50
2022/11/10 14:29:37;;;;;;;23.02;15.83;;;;;;;8.64;100.00;100553.79;1695162;82;21108;-50
2022/11/10 14:32:23;;;;;;;23.18;15.70;;;;;;;8.65;100.00;100551.98;1705563;82;22764;-51
2022/11/10 14:35:24;;;;;;;19.98;13.65;;;;;;;8.66;100.00;100548.39;1699770;82;22062;-50
2022/11/10 14:38:22;;;;;;;17.73;13.83;;;;;;;8.67;100.00;100546.13;1698272;82;21032;-50
2022/11/10 14:41:15;;;;;;;20.62;14.53;;;;;;;8.68;100.00;100541.14;1702220;82;21048;-51
2022/11/10 14:44:05;;;;;;;19.20;13.98;;;;;;;8.69;100.00;100541.57;1703277;82;21430;-51
2022/11/10 14:46:52;;;;;;;22.10;14.80;;;;;;;8.69;100.00;100536.20;1698728;82;21472;-51
2022/11/10 14:49:37;;;;;;;23.18;15.70;;;;;;;8.68;100.00;100537.12;1700436;82;21072;-50
2022/11/10 14:52:22;;;;;;;;;;;;;;;8.66;100.00;100534.97;1701004;82;21604;-50
2022/11/10 14:55:15;;;;;;;23.30;14.00;;;;;;;8.67;100.00;100540.30;1704717;82;21629;-51
2022/11/10 14:58:25;;;;;;;20.05;14.50;;;;;;;8.67;100.00;100547.01;1655448;84;20958;-51
2022/11/10 15:01:35;;;;;;;19.50;13.55;;;;;;;8.66;100.00;100551.95;1696393;82;21798;-50
2022/11/10 15:04:28;;;;;;;25.02;15.80;;;;;;;8.65;100.00;100543.94;1696037;82;21447;-50
2022/11/10 15:07:13;;;;;;;21.62;14.90;;;;;;;8.64;100.00;100551.11;1707810;82;20975;-50
2022/11/10 15:10:21;;;;;;;23.75;15.40;;;;;;;8.64;100.00;100555.13;1702380;82;21041;-51
2022/11/10 15:13:15;;;;;;;21.27;14.40;;;;;;;8.64;100.00;100554.25;1694720;82;21060;-50
2022/11/10 15:16:30;;;;;;;24.55;14.33;;;;;;;8.65;100.00;100551.98;1688388;82;23129;-50
2022/11/10 15:19:30;;;;;;;20.82;14.33;;;;;;;8.64;100.00;100559.16;1701318;82;21068;-50
2022/11/10 15:22:30;;;;;;;18.48;13.62;;;;;;;8.66;100.00;100559.13;1697239;82;20993;-50
2022/11/10 15:25:16;;;;;;;20.12;13.80;;;;;;;8.67;100.00;100553.72;1690425;82;20977;-50
2022/11/10 15:28:22;;;;;;;19.90;14.33;;;;;;;8.68;100.00;100554.56;1700367;82;20987;-49
2022/11/10 15:31:09;;;;;;;22.82;15.60;;;;;;;8.68;100.00;100553.22;1703560;82;21859;-49
2022/11/10 15:33:57;;;;;;;21.80;15.65;;;;;;;8.69;100.00;100552.30;1710071;82;21022;-50
2022/11/10 15:36:43;;;;;;;24.15;16.60;;;;;;;8.70;100.00;100562.13;1709566;82;20978;-50
2022/11/10 15:39:28;;;;;;;26.57;19.65;;;;;;;8.70;100.00;100549.58;1708636;82;20983;-50
2022/11/10 15:42:20;;;;;;;35.58;22.27;;;;;;;8.70;100.00;100548.70;1707603;82;21022;-50
2022/11/10 15:45:05;;;;;;;38.90;23.70;;;;;;;8.70;100.00;100552.27;1698653;82;21791;-50
2022/11/10 15:47:50;;;;;;;36.03;24.57;;;;;;;8.70;100.00;100556.30;1694377;82;21123;-50
2022/11/10 15:50:35;;;;;;;43.63;26.55;;;;;;;8.70;100.00;100552.27;1705098;82;21085;-49
2022/11/10 15:53:28;;;;;;;36.13;23.07;;;;;;;8.70;100.00;100552.73;1708907;82;21048;-50